createdAt,value
2018-09-05T00:02:35.671Z,14.43
2018-09-05T00:05:40.575Z,15.33
2018-09-05T00:08:45.549Z,15.57
2018-09-05T00:11:50.422Z,16.83
2018-09-05T00:15:21.975Z,15.83
2018-09-05T00:18:26.861Z,16.63
2018-09-05T00:21:31.878Z,17.30
2018-09-05T00:24:36.884Z,15.97
2018-09-05T00:27:41.907Z,15.67
2018-09-05T00:30:47.033Z,15.80
2018-09-05T00:33:51.954Z,16.40
2018-09-05T00:36:56.861Z,16.83
2018-09-05T00:40:01.728Z,15.80
2018-09-05T00:43:07.090Z,17.27
2018-09-05T00:46:12.000Z,17.80
2018-09-05T00:49:17.035Z,16.27
2018-09-05T00:52:21.952Z,19.40
2018-09-05T00:55:27.021Z,18.13
2018-09-05T00:58:32.042Z,16.63
2018-09-05T01:01:37.061Z,17.23
2018-09-05T01:04:41.996Z,19.60
2018-09-05T01:07:46.926Z,18.00
2018-09-05T01:10:51.849Z,19.37
2018-09-05T01:13:56.708Z,17.50
2018-09-05T01:17:01.641Z,18.57
2018-09-05T01:20:06.495Z,19.20
2018-09-05T01:23:11.367Z,17.77
2018-09-05T01:26:16.312Z,20.90
2018-09-05T01:29:21.198Z,24.57
2018-09-05T01:32:26.091Z,80.53
2018-09-05T01:35:30.925Z,108.00
2018-09-05T01:38:35.733Z,40.13
2018-09-05T01:41:40.679Z,27.07
2018-09-05T01:44:45.478Z,21.07
2018-09-05T01:47:50.310Z,21.70
2018-09-05T01:50:55.406Z,20.77
2018-09-05T01:54:00.337Z,19.70
2018-09-05T01:57:05.280Z,19.07
2018-09-05T02:00:15.140Z,18.53
2018-09-05T02:03:20.004Z,21.33
2018-09-05T02:06:24.971Z,21.33
2018-09-05T02:09:30.007Z,20.07
2018-09-05T02:12:34.937Z,19.33
2018-09-05T02:15:39.813Z,19.10
2018-09-05T02:18:44.614Z,17.17
2018-09-05T02:21:49.474Z,17.60
2018-09-05T02:24:54.351Z,18.20
2018-09-05T02:27:59.336Z,18.33
2018-09-05T02:31:04.146Z,19.70
2018-09-05T02:34:09.001Z,17.10
2018-09-05T02:37:13.815Z,17.47
2018-09-05T02:40:18.761Z,18.57
2018-09-05T02:43:28.594Z,18.63
2018-09-05T02:46:33.588Z,19.30
2018-09-05T02:49:38.382Z,19.57
2018-09-05T02:52:43.478Z,20.07
2018-09-05T02:55:53.511Z,20.03
2018-09-05T02:58:58.378Z,19.30
2018-09-05T03:02:03.312Z,16.53
2018-09-05T03:05:08.269Z,17.60
2018-09-05T03:08:13.458Z,16.23
2018-09-05T03:11:18.303Z,16.93
2018-09-05T03:14:23.219Z,17.17
2018-09-05T03:17:28.085Z,17.53
2018-09-05T03:20:32.957Z,20.97
2018-09-05T03:23:37.824Z,24.00
2018-09-05T03:26:42.641Z,24.00
2018-09-05T03:29:47.542Z,30.63
2018-09-05T03:32:52.452Z,71.17
2018-09-05T03:35:57.351Z,48.20
2018-09-05T03:39:02.223Z,67.40
2018-09-05T03:42:07.293Z,57.00
2018-09-05T03:45:12.102Z,24.83
2018-09-05T03:48:17.142Z,31.50
2018-09-05T03:51:22.062Z,27.87
2018-09-05T03:54:26.921Z,29.53
2018-09-05T03:57:31.805Z,24.23
2018-09-05T04:00:37.275Z,21.40
2018-09-05T04:03:42.213Z,22.70
2018-09-05T04:06:47.088Z,30.83
2018-09-05T04:09:51.987Z,26.93
2018-09-05T04:12:56.791Z,35.60
2018-09-05T04:16:01.674Z,53.00
2018-09-05T04:19:06.518Z,26.37
2018-09-05T04:22:11.442Z,25.03
2018-09-05T04:25:16.258Z,18.93
2018-09-05T04:28:21.141Z,17.83
2018-09-05T04:31:26.084Z,18.70
2018-09-05T04:34:30.937Z,18.50
2018-09-05T04:37:35.912Z,28.13
2018-09-05T04:40:40.789Z,32.70
2018-09-05T04:43:45.614Z,43.37
2018-09-05T04:46:50.576Z,82.57
2018-09-05T04:49:55.434Z,84.03
2018-09-05T04:53:00.303Z,43.13
2018-09-05T04:56:05.526Z,24.57
2018-09-05T04:59:10.334Z,29.23
2018-09-05T05:02:15.526Z,34.37
2018-09-05T05:05:20.461Z,22.07
2018-09-05T05:08:25.416Z,19.43
2018-09-05T05:11:30.461Z,18.37
2018-09-05T05:14:35.342Z,18.90
2018-09-05T05:17:40.310Z,19.03
2018-09-05T05:20:45.171Z,18.93
2018-09-05T05:23:50.021Z,27.63
2018-09-05T05:26:54.871Z,19.53
2018-09-05T05:29:59.768Z,17.97
2018-09-05T05:33:04.635Z,20.70
2018-09-05T05:36:09.528Z,23.83
2018-09-05T05:39:14.360Z,19.50
2018-09-05T05:42:19.202Z,39.00
2018-09-05T05:45:24.060Z,51.93
2018-09-05T05:48:29.054Z,27.20
2018-09-05T05:51:33.874Z,38.37
2018-09-05T05:54:38.747Z,50.83
2018-09-05T05:57:43.697Z,23.50
2018-09-05T06:00:48.715Z,15.70
2018-09-05T06:03:55.020Z,44.67
2018-09-05T06:06:59.836Z,40.07
2018-09-05T06:10:04.759Z,33.03
2018-09-05T06:13:09.577Z,29.87
2018-09-05T06:16:14.412Z,40.97
2018-09-05T06:19:19.255Z,24.93
2018-09-05T06:22:24.239Z,18.00
2018-09-05T06:25:29.046Z,20.67
2018-09-05T06:28:33.899Z,16.77
2018-09-05T06:31:38.839Z,16.07
2018-09-05T06:34:43.733Z,16.07
2018-09-05T06:37:48.640Z,15.20
2018-09-05T06:40:53.483Z,13.20
2018-09-05T06:43:58.470Z,12.40
2018-09-05T06:47:03.271Z,12.70
2018-09-05T06:50:08.523Z,10.70
2018-09-05T06:53:13.371Z,12.13
2018-09-05T06:56:18.290Z,13.87
2018-09-05T06:59:23.158Z,17.30
2018-09-05T07:02:28.796Z,17.47
2018-09-05T07:05:33.794Z,19.27
2018-09-05T07:08:38.763Z,18.47
2018-09-05T07:11:44.578Z,15.53
2018-09-05T07:14:49.473Z,15.10
2018-09-05T07:17:54.391Z,16.37
2018-09-05T07:21:05.681Z,16.37
2018-09-05T07:24:04.304Z,15.10
2018-09-05T07:27:09.226Z,17.67
2018-09-05T07:30:16.170Z,17.93
2018-09-05T07:33:21.121Z,18.73
2018-09-05T07:36:26.237Z,19.23
2018-09-05T07:39:31.102Z,19.27
2018-09-05T07:42:35.980Z,16.90
2018-09-05T07:45:40.931Z,19.07
2018-09-05T07:48:45.894Z,17.57
2018-09-05T07:51:50.760Z,17.20
2018-09-05T07:54:55.593Z,18.80
2018-09-05T07:58:00.492Z,20.83
2018-09-05T08:01:05.593Z,18.37
2018-09-05T08:04:11.061Z,15.73
2018-09-05T08:07:15.916Z,19.93
2018-09-05T08:10:20.806Z,15.00
2018-09-05T08:13:25.696Z,17.87
2018-09-05T08:16:30.480Z,15.40
2018-09-05T08:19:35.337Z,14.17
2018-09-05T08:22:40.232Z,17.77
2018-09-05T08:25:45.291Z,12.50
2018-09-05T08:28:50.184Z,10.97
2018-09-05T08:31:55.287Z,10.67
2018-09-05T08:35:00.130Z,11.03
2018-09-05T08:38:04.944Z,14.97
2018-09-05T08:41:10.914Z,12.17
2018-09-05T08:44:15.741Z,14.63
2018-09-05T08:47:20.619Z,11.80
2018-09-05T08:50:25.352Z,11.37
2018-09-05T08:53:30.322Z,11.80
2018-09-05T08:56:35.358Z,21.97
2018-09-05T08:59:40.169Z,17.87
2018-09-05T09:02:45.085Z,14.77
2018-09-05T09:05:50.204Z,14.00
2018-09-05T09:08:55.086Z,15.07
2018-09-05T09:11:59.998Z,17.73
2018-09-05T09:15:05.008Z,15.77
2018-09-05T09:18:09.948Z,14.77
2018-09-05T09:21:14.918Z,14.13
2018-09-05T09:24:19.809Z,15.40
2018-09-05T09:27:24.817Z,14.50
2018-09-05T09:30:29.646Z,13.90
2018-09-05T09:33:34.510Z,13.80
2018-09-05T09:36:39.477Z,12.13
2018-09-05T09:39:44.371Z,16.37
2018-09-05T09:42:49.309Z,13.50
2018-09-05T09:45:54.311Z,12.83
2018-09-05T09:48:59.240Z,13.00
2018-09-05T09:52:09.374Z,12.37
2018-09-05T09:55:14.482Z,12.70
2018-09-05T09:58:20.306Z,12.90
2018-09-05T10:01:30.602Z,11.73
2018-09-05T10:04:40.666Z,12.77
2018-09-05T10:07:50.644Z,11.70
2018-09-05T10:11:02.497Z,13.07
2018-09-05T10:14:16.221Z,12.87
2018-09-05T10:17:33.490Z,12.27
2018-09-05T10:20:38.310Z,12.53
2018-09-05T10:23:43.262Z,11.97
2018-09-05T10:26:48.314Z,11.17
2018-09-05T10:29:53.782Z,13.63
2018-09-05T10:32:58.676Z,12.13
2018-09-05T10:36:03.592Z,12.70
2018-09-05T10:39:10.712Z,13.50
2018-09-05T10:42:15.606Z,11.13
2018-09-05T10:45:56.675Z,11.77
2018-09-05T10:49:01.586Z,12.13
2018-09-05T10:52:07.675Z,13.03
2018-09-05T10:55:12.606Z,11.83
2018-09-05T10:58:17.635Z,9.67
2018-09-05T11:01:22.367Z,11.33
2018-09-05T11:04:27.526Z,8.40
2018-09-05T11:07:32.310Z,10.33
2018-09-05T11:10:37.249Z,11.03
2018-09-05T11:13:42.109Z,9.67
2018-09-05T11:16:46.927Z,11.27
2018-09-05T11:19:51.719Z,9.40
2018-09-05T11:22:56.640Z,8.00
2018-09-05T11:26:01.411Z,8.83
2018-09-05T11:29:06.446Z,9.17
2018-09-05T11:32:11.185Z,7.67
2018-09-05T11:35:16.022Z,8.67
2018-09-05T11:38:21.008Z,7.70
2018-09-05T11:41:26.066Z,8.47
2018-09-05T11:44:30.957Z,8.87
2018-09-05T11:47:35.949Z,9.10
2018-09-05T11:50:40.850Z,8.90
2018-09-05T11:53:45.880Z,7.80
2018-09-05T11:56:50.837Z,8.47
2018-09-05T11:59:55.699Z,9.80
2018-09-05T12:03:00.762Z,8.90
2018-09-05T12:06:05.958Z,11.03
2018-09-05T12:09:12.617Z,12.90
2018-09-05T12:12:17.874Z,7.30
2018-09-05T12:15:22.733Z,7.60
2018-09-05T12:18:27.696Z,9.73
2018-09-05T12:21:32.683Z,6.93
2018-09-05T12:24:37.648Z,8.57
2018-09-05T12:27:42.540Z,6.73
2018-09-05T12:30:47.383Z,7.80
2018-09-05T12:33:52.218Z,7.03
2018-09-05T12:36:57.159Z,7.63
2018-09-05T12:40:02.072Z,8.33
2018-09-05T12:43:07.079Z,7.57
2018-09-05T12:46:12.060Z,7.23
2018-09-05T12:49:16.928Z,7.50
2018-09-05T12:52:21.755Z,10.07
2018-09-05T12:55:26.663Z,7.73
2018-09-05T12:58:31.531Z,11.17
2018-09-05T13:01:36.459Z,6.37
2018-09-05T13:04:41.464Z,7.50
2018-09-05T13:07:46.361Z,7.93
2018-09-05T13:10:51.337Z,7.10
2018-09-05T13:13:56.214Z,10.23
2018-09-05T13:17:01.062Z,7.10
2018-09-05T13:20:06.203Z,8.13
2018-09-05T13:23:11.135Z,8.50
2018-09-05T13:26:16.068Z,8.77
2018-09-05T13:29:20.983Z,8.77
2018-09-05T13:32:25.842Z,6.93
2018-09-05T13:35:31.058Z,7.40
2018-09-05T13:38:36.011Z,12.50
2018-09-05T13:41:41.403Z,9.10
2018-09-05T13:44:46.279Z,7.80
2018-09-05T13:47:51.212Z,7.40
2018-09-05T13:50:56.091Z,6.90
2018-09-05T13:54:01.062Z,7.17
2018-09-05T13:57:05.864Z,10.27
2018-09-05T14:00:15.309Z,8.53
2018-09-05T14:03:20.349Z,7.77
2018-09-05T14:06:25.219Z,6.50
2018-09-05T14:09:30.119Z,7.20
2018-09-05T14:12:34.979Z,8.33
2018-09-05T14:15:39.908Z,8.13
2018-09-05T14:18:44.836Z,6.70
2018-09-05T14:21:49.783Z,7.47
2018-09-05T14:24:55.585Z,7.83
2018-09-05T14:28:03.358Z,8.20
2018-09-05T14:31:08.209Z,7.90
2018-09-05T14:34:13.196Z,7.20
2018-09-05T14:37:18.045Z,9.23
2018-09-05T14:40:23.035Z,7.90
2018-09-05T14:43:27.905Z,7.03
2018-09-05T14:46:32.961Z,9.03
2018-09-05T14:49:37.901Z,12.47
2018-09-05T14:52:42.750Z,6.60
2018-09-05T14:55:47.637Z,8.80
2018-09-05T14:58:52.675Z,6.67
2018-09-05T15:01:57.535Z,8.27
2018-09-05T15:05:02.346Z,7.37
2018-09-05T15:08:07.571Z,7.53
2018-09-05T15:11:12.441Z,10.37
2018-09-05T15:14:17.398Z,6.77
2018-09-05T15:17:22.411Z,7.87
2018-09-05T15:20:27.376Z,7.03
2018-09-05T15:23:32.289Z,10.00
2018-09-05T15:26:37.339Z,9.63
2018-09-05T15:29:42.354Z,6.73
2018-09-05T15:32:47.282Z,9.43
2018-09-05T15:35:52.471Z,7.70
2018-09-05T15:38:57.474Z,9.30
2018-09-05T15:42:02.339Z,7.33
2018-09-05T15:45:07.363Z,8.90
2018-09-05T15:48:12.380Z,9.13
2018-09-05T15:51:17.311Z,7.97
2018-09-05T15:54:22.365Z,8.67
2018-09-05T15:57:27.665Z,7.17
2018-09-05T16:00:32.513Z,7.40
2018-09-05T16:03:37.417Z,10.07
2018-09-05T16:06:42.198Z,7.97
2018-09-05T16:09:47.090Z,9.03
2018-09-05T16:12:51.941Z,7.43
2018-09-05T16:15:56.850Z,8.67
2018-09-05T16:19:01.892Z,7.43
2018-09-05T16:22:07.241Z,7.53
2018-09-05T16:25:12.252Z,9.80
2018-09-05T16:28:17.098Z,7.67
2018-09-05T16:31:22.017Z,7.80
2018-09-05T16:34:26.890Z,7.40
2018-09-05T16:37:31.788Z,8.10
2018-09-05T16:40:36.765Z,7.60
2018-09-05T16:43:41.648Z,7.87
2018-09-05T16:46:46.594Z,8.07
2018-09-05T16:49:52.195Z,9.03
2018-09-05T16:52:57.050Z,9.30
2018-09-05T16:56:01.969Z,9.23
2018-09-05T16:59:06.941Z,9.13
2018-09-05T17:02:11.785Z,8.27
2018-09-05T17:05:16.725Z,7.87
2018-09-05T17:08:21.714Z,7.60
2018-09-05T17:11:26.513Z,11.10
2018-09-05T17:14:31.405Z,9.20
2018-09-05T17:17:38.994Z,8.43
2018-09-05T17:20:44.071Z,7.60
2018-09-05T17:23:48.994Z,8.27
2018-09-05T17:26:54.050Z,7.57
2018-09-05T17:30:08.656Z,8.37
2018-09-05T17:33:13.610Z,7.47
2018-09-05T17:36:18.571Z,8.80
2018-09-05T17:39:39.454Z,8.97
2018-09-05T17:42:44.314Z,7.83
2018-09-05T17:45:49.608Z,7.83
2018-09-05T17:48:54.565Z,8.63
2018-09-05T17:51:59.528Z,7.63
2018-09-05T17:55:04.580Z,9.33
2018-09-05T17:58:09.481Z,11.40
2018-09-05T18:01:17.592Z,11.03
2018-09-05T18:04:22.511Z,10.90
2018-09-05T18:07:27.390Z,10.37
2018-09-05T18:10:32.528Z,9.13
2018-09-05T18:13:37.394Z,11.57
2018-09-05T18:16:42.266Z,8.93
2018-09-05T18:20:00.608Z,8.27
2018-09-05T18:23:08.117Z,8.60
2018-09-05T18:26:20.331Z,12.67
2018-09-05T18:29:29.755Z,11.53
2018-09-05T18:32:34.718Z,12.13
2018-09-05T18:35:39.572Z,8.23
2018-09-05T18:38:44.415Z,10.63
2018-09-05T18:41:49.446Z,11.40
2018-09-05T18:44:54.256Z,9.33
2018-09-05T18:48:00.133Z,8.80
2018-09-05T18:51:05.393Z,9.67
2018-09-05T18:54:10.437Z,9.60
2018-09-05T18:57:15.392Z,8.40
2018-09-05T19:00:20.466Z,14.77
2018-09-05T19:03:25.474Z,10.50
2018-09-05T19:06:30.728Z,9.77
2018-09-05T19:09:35.692Z,10.67
2018-09-05T19:12:40.608Z,11.07
2018-09-05T19:15:45.593Z,9.70
2018-09-05T19:18:50.596Z,9.77
2018-09-05T19:21:55.680Z,11.07
2018-09-05T19:25:00.607Z,10.33
2018-09-05T19:28:05.770Z,10.93
2018-09-05T19:31:11.756Z,9.77
2018-09-05T19:34:17.000Z,10.23
2018-09-05T19:37:22.424Z,9.70
2018-09-05T19:40:27.777Z,10.37
2018-09-05T19:43:32.957Z,9.60
2018-09-05T19:46:39.096Z,14.33
2018-09-05T19:49:44.663Z,8.97
2018-09-05T19:52:49.933Z,9.87
2018-09-05T19:55:55.021Z,11.63
2018-09-05T19:59:00.120Z,12.33
2018-09-05T20:02:05.295Z,10.03
2018-09-05T20:05:10.651Z,11.07
2018-09-05T20:08:15.751Z,11.03
2018-09-05T20:11:20.985Z,11.10
2018-09-05T20:14:26.099Z,13.03
2018-09-05T20:17:31.079Z,10.77
2018-09-05T20:20:36.582Z,11.20
2018-09-05T20:23:41.597Z,10.13
2018-09-05T20:26:46.575Z,10.50
2018-09-05T20:29:51.574Z,11.80
2018-09-05T20:32:57.602Z,11.17
2018-09-05T20:36:02.622Z,10.63
2018-09-05T20:39:11.023Z,11.47
2018-09-05T20:42:16.080Z,10.87
2018-09-05T20:45:21.055Z,11.27
2018-09-05T20:48:26.111Z,11.20
2018-09-05T20:51:31.396Z,10.47
2018-09-05T20:54:36.495Z,11.00
2018-09-05T20:57:41.537Z,11.37
2018-09-05T21:00:46.856Z,11.70
2018-09-05T21:03:52.109Z,10.53
2018-09-05T21:06:58.048Z,12.50
2018-09-05T21:10:03.262Z,11.47
2018-09-05T21:13:08.375Z,10.87
2018-09-05T21:16:13.626Z,11.03
2018-09-05T21:19:18.667Z,11.17
2018-09-05T21:22:23.720Z,11.73
2018-09-05T21:25:30.004Z,12.67
2018-09-05T21:28:34.942Z,17.27
2018-09-05T21:31:40.225Z,11.73
2018-09-05T21:34:47.061Z,14.30
2018-09-05T21:37:52.313Z,11.57
2018-09-05T21:40:57.259Z,11.37
2018-09-05T21:44:02.774Z,10.60
2018-09-05T21:47:07.677Z,11.63
2018-09-05T21:50:12.602Z,13.23
2018-09-05T21:53:17.465Z,12.43
2018-09-05T21:56:22.341Z,12.80
2018-09-05T21:59:27.256Z,12.87
2018-09-05T22:02:32.162Z,12.93
2018-09-05T22:05:37.206Z,12.80
2018-09-05T22:08:42.083Z,13.07
2018-09-05T22:11:47.105Z,12.57
2018-09-05T22:14:52.046Z,12.53
2018-09-05T22:17:56.966Z,14.77
2018-09-05T22:21:01.871Z,13.93
2018-09-05T22:24:06.961Z,12.33
2018-09-05T22:27:11.874Z,12.93
2018-09-05T22:30:16.897Z,15.33
2018-09-05T22:33:21.764Z,13.23
2018-09-05T22:36:26.680Z,12.73
2018-09-05T22:39:31.761Z,12.83
2018-09-05T22:42:38.374Z,13.17
2018-09-05T22:45:59.802Z,13.03
2018-09-05T22:53:34.660Z,13.33
2018-09-05T22:59:05.983Z,12.80
2018-09-05T23:04:29.760Z,12.97
2018-09-05T23:07:50.215Z,13.47
2018-09-05T23:12:15.644Z,15.57
2018-09-05T23:15:37.258Z,14.07
2018-09-05T23:19:02.750Z,13.40
2018-09-05T23:22:07.655Z,17.37
2018-09-05T23:25:12.459Z,13.73
2018-09-05T23:28:17.325Z,14.43
2018-09-05T23:31:22.684Z,14.30
2018-09-05T23:34:27.537Z,13.40
2018-09-05T23:37:32.540Z,13.80
2018-09-05T23:40:37.415Z,14.53
2018-09-05T23:43:42.353Z,14.20
2018-09-05T23:46:47.203Z,14.00
2018-09-05T23:49:52.066Z,15.50
2018-09-05T23:52:56.918Z,14.60
2018-09-05T23:56:01.896Z,13.67
2018-09-05T23:59:07.820Z,13.90
